Flight Track Log - Related Links

Times and Time Zones

All times are in EDT time to prevent confusion due to time zone crossing. See the DAL1781 flight status page for this flight to view local times or setup timezone preferences in your user account.

Time Position Orientation Groundspeed Altitude Reporting Facility
EDT Latitude Longitude Course Direction KTS MPH feet Rate Location/Type
Sun 05:31:28 PM 43.4964 -116.2456 148° Southeast 290 334 8,600  Level Salt Lake Center
Sun 05:32:00 PM 43.3452 -115.8645 120° Southeast  Level Estimated
Sun 05:32:30 PM 43.4536 -116.1308 117° Southeast 318 366 11,500  Level Salt Lake Center
Sun 05:33:00 PM 43.3263 -115.7108 100° East  Level FlightAware Approximate
Sun 05:33:32 PM 43.4064 -116.0017 117° Southeast 388 447 13,400  Level Salt Lake Center
Sun 05:34:00 PM 43.2515 -115.5937 121° Southeast  Level Estimated
Sun 05:34:34 PM 43.3503 -115.8503 117° Southeast 422 486 16,500  Level Salt Lake Center
Sun 05:35:00 PM 43.1767 -115.4769 120° Southeast  Level Estimated
Sun 05:35:35 PM 43.2914 -115.6917 117° Southeast 446 513 18,900  Level Salt Lake Center
Sun 05:36:37 PM 43.2303 -115.5325 118° Southeast 468 539 21,100 2,032 Climbing Salt Lake Center
Sun 05:37:39 PM 43.1708 -115.3756 117° Southeast 485 558 23,100 1,984 Climbing Salt Lake Center
Sun 05:38:41 PM 43.0994 -115.1883 118° Southeast 497 572 25,200 1,742 Climbing Salt Lake Center
Sun 05:39:43 PM 43.0361 -115.0233 118° Southeast 510 587 26,700 1,610 Climbing Salt Lake Center
Sun 05:40:44 PM 42.9594 -114.8236 118° Southeast 528 608 28,500 2,049 Climbing Salt Lake Center
Sun 05:41:46 PM 42.8947 -114.6561 118° Southeast 521 600 30,900 1,984 Climbing Salt Lake Center
Sun 05:42:48 PM 42.8328 -114.5014 119° Southeast 505 581 32,600 1,024 Climbing Salt Lake Center
Sun 05:43:49 PM 42.7533 -114.3003 118° Southeast 504 580 33,000 195 Climbing Salt Lake Center
Sun 05:44:51 PM 42.6872 -114.1303 118° Southeast 508 585 33,000  Level Salt Lake Center
Sun 05:45:53 PM 42.6206 -113.9625 118° Southeast 507 583 33,000  Level Salt Lake Center
Sun 05:46:55 PM 42.5400 -113.8058 125° Southeast 506 582 33,000 -195 Level Salt Lake Center
Sun 05:47:56 PM 42.4383 -113.6750 136° Southeast 504 580 32,600 -1,073 Descending Salt Lake Center
Sun 05:48:58 PM 42.3397 -113.5436 135° Southeast 499 574 30,800 -1,742 Descending Salt Lake Center
Sun 05:50:00 PM 42.2408 -113.4119 135° Southeast 499 574 29,000 -878 Descending Salt Lake Center
Sun 05:51:01 PM 42.1197 -113.2525 136° Southeast 507 583 29,000  Level Salt Lake Center
Sun 05:52:03 PM 42.0217 -113.1233 136° Southeast 499 574 29,000 -1,024 Level Salt Lake Center
Sun 05:53:04 PM 41.9222 -112.9953 136° Southeast 496 571 26,900 -2,244 Descending Salt Lake Center
Sun 05:54:06 PM 41.8278 -112.8708 136° Southeast 481 554 24,400 -2,419 Descending Salt Lake Center
Sun 05:55:08 PM 41.7372 -112.7533 136° Southeast 460 529 21,900 -2,579 Descending Salt Lake Center
Sun 05:56:07 PM 41.6469 -112.6247 133° Southeast 443 510 19,200 -2,195 Descending Salt Lake Center
Sun 05:57:11 PM 41.5644 -112.5336 140° Southeast 423 487 17,400 -1,671 Descending Salt Lake Center
Sun 05:57:26 PM 41.5350 -112.4878 131° Southeast 414 476 17,000 -1,258 Descending Salt Lake Center
Sun 05:58:13 PM 41.4611 -112.4283 149° Southeast 390 449 16,100 -1,167 Descending Salt Lake Center
Sun 05:59:14 PM 41.3694 -112.3636 152° Southeast 376 433 14,900 -1,171 Descending Salt Lake Center
Sun 06:00:16 PM 41.2794 -112.2994 152° Southeast 369 425 13,700 -1,024 Descending Salt Lake Center
Sun 06:01:17 PM 41.1931 -112.2367 151° Southeast 356 410 12,800 -837 Descending Salt Lake Center
Sun 06:01:42 PM 41.1567 -112.2072 149° Southeast 353 406 12,500 -581 Descending Salt Lake Center
Sun 06:02:19 PM 41.1092 -112.1717 151° Southeast 352 405 12,200 -545 Descending Salt Lake Center
Sun 06:02:37 PM 41.0764 -112.1489 152° Southeast 351 404 12,000 -492 Descending Salt Lake Center
Sun 06:03:20 PM 41.0208 -112.1342 169° South 340 391 11,700 -636 Descending Salt Lake Center
Sun 06:03:43 PM 40.9706 -112.1250 172° South 339 390 11,300 -538 Descending Salt Lake Center
Sun 06:04:38 PM 40.8967 -112.1103 171° South 295 339 11,000 -180 Descending Salt Lake Center
Sun 06:05:23 PM 40.8456 -112.1031 174° South 252 290 11,000  Level Salt Lake Center
Sun 06:05:39 PM 40.8286 -112.1022 178° South 242 278 11,000 -290 Level Salt Lake Center
Sun 06:06:25 PM 40.7822 -112.0950 173° South 232 267 10,700 -785 Descending Salt Lake Center
Sun 06:07:26 PM 40.7192 -112.0881 175° South 228 262 9,600 -1,071 Descending Salt Lake Center
Sun 06:08:17 PM 40.6636 -112.0844 177° South 223 257 8,700 -1,059 Descending Salt Lake Center

Login

Don't have an account? Register now (free) for customized features, flight alerts, and more!